sensor_id;sensor_type;location;lat;lon;timestamp;P1;durP1;ratioP1;P2;durP2;ratioP2
58512;SDS011;44302;47.914;10.642;2023-02-28T07:44:28;10.00;;;6.40;;
58512;SDS011;44302;47.914;10.642;2023-02-28T09:23:40;14.17;;;9.23;;
58512;SDS011;44302;47.914;10.642;2023-02-28T09:27:53;15.80;;;9.20;;
58512;SDS011;44302;47.914;10.642;2023-02-28T09:31:53;12.77;;;8.60;;
58512;SDS011;44302;47.914;10.642;2023-02-28T09:35:58;13.83;;;7.83;;
58512;SDS011;44302;47.914;10.642;2023-02-28T09:39:58;13.83;;;8.60;;
58512;SDS011;44302;47.914;10.642;2023-02-28T09:43:59;14.07;;;8.20;;
58512;SDS011;44302;47.914;10.642;2023-02-28T09:48:00;18.67;;;10.37;;
58512;SDS011;44302;47.914;10.642;2023-02-28T09:52:05;15.10;;;9.40;;
58512;SDS011;44302;47.914;10.642;2023-02-28T09:56:12;13.67;;;9.50;;
58512;SDS011;44302;47.914;10.642;2023-02-28T10:05:25;13.37;;;10.37;;
58512;SDS011;44302;47.914;10.642;2023-02-28T10:13:54;16.90;;;8.77;;
58512;SDS011;44302;47.914;10.642;2023-02-28T10:16:11;12.03;;;9.07;;
58512;SDS011;44302;47.914;10.642;2023-02-28T10:22:00;11.57;;;8.57;;
58512;SDS011;44302;47.914;10.642;2023-02-28T10:24:11;11.77;;;8.80;;
58512;SDS011;44302;47.914;10.642;2023-02-28T10:26:39;11.87;;;8.47;;
58512;SDS011;44302;47.914;10.642;2023-02-28T10:29:09;12.57;;;8.10;;
58512;SDS011;44302;47.914;10.642;2023-02-28T10:31:35;14.67;;;9.47;;
58512;SDS011;44302;47.914;10.642;2023-02-28T10:34:01;13.40;;;9.50;;
58512;SDS011;44302;47.914;10.642;2023-02-28T10:36:28;12.87;;;9.47;;
58512;SDS011;44302;47.914;10.642;2023-02-28T10:38:54;13.00;;;9.13;;
58512;SDS011;44302;47.914;10.642;2023-02-28T10:41:27;14.33;;;9.20;;
58512;SDS011;44302;47.914;10.642;2023-02-28T10:44:11;13.17;;;9.10;;
58512;SDS011;44302;47.914;10.642;2023-02-28T10:46:40;16.97;;;10.13;;
58512;SDS011;44302;47.914;10.642;2023-02-28T10:49:12;15.57;;;10.27;;
58512;SDS011;44302;47.914;10.642;2023-02-28T10:51:45;14.60;;;10.77;;
58512;SDS011;44302;47.914;10.642;2023-02-28T10:54:22;14.60;;;9.33;;
58512;SDS011;44302;47.914;10.642;2023-02-28T10:57:21;14.70;;;10.37;;
58512;SDS011;44302;47.914;10.642;2023-02-28T11:00:05;11.87;;;8.67;;
58512;SDS011;44302;47.914;10.642;2023-02-28T11:02:42;15.23;;;9.83;;
58512;SDS011;44302;47.914;10.642;2023-02-28T11:05:22;16.27;;;9.63;;
58512;SDS011;44302;47.914;10.642;2023-02-28T11:08:03;12.63;;;9.60;;
58512;SDS011;44302;47.914;10.642;2023-02-28T11:10:36;14.03;;;9.53;;
58512;SDS011;44302;47.914;10.642;2023-02-28T11:13:02;16.57;;;10.10;;
58512;SDS011;44302;47.914;10.642;2023-02-28T11:15:30;14.60;;;9.27;;
58512;SDS011;44302;47.914;10.642;2023-02-28T11:17:59;11.47;;;8.90;;
58512;SDS011;44302;47.914;10.642;2023-02-28T11:20:47;14.37;;;9.73;;
58512;SDS011;44302;47.914;10.642;2023-02-28T11:23:18;14.60;;;9.93;;
58512;SDS011;44302;47.914;10.642;2023-02-28T11:25:49;13.40;;;10.10;;
58512;SDS011;44302;47.914;10.642;2023-02-28T11:28:32;19.20;;;10.83;;
58512;SDS011;44302;47.914;10.642;2023-02-28T11:33:32;17.37;;;9.13;;
58512;SDS011;44302;47.914;10.642;2023-02-28T11:36:19;12.47;;;9.90;;
58512;SDS011;44302;47.914;10.642;2023-02-28T11:38:45;13.60;;;9.90;;
58512;SDS011;44302;47.914;10.642;2023-02-28T11:41:21;14.17;;;9.63;;
58512;SDS011;44302;47.914;10.642;2023-02-28T11:54:24;14.47;;;10.13;;
58512;SDS011;44302;47.914;10.642;2023-02-28T12:06:44;12.20;;;9.57;;
58512;SDS011;44302;47.914;10.642;2023-02-28T12:08:53;13.43;;;10.13;;
58512;SDS011;44302;47.914;10.642;2023-02-28T12:12:29;12.43;;;9.67;;
58512;SDS011;44302;47.914;10.642;2023-02-28T12:14:49;13.47;;;9.47;;
58512;SDS011;44302;47.914;10.642;2023-02-28T12:17:38;13.33;;;9.83;;
58512;SDS011;44302;47.914;10.642;2023-02-28T12:20:15;13.53;;;11.03;;
58512;SDS011;44302;47.914;10.642;2023-02-28T12:28:27;13.17;;;10.13;;
58512;SDS011;44302;47.914;10.642;2023-02-28T12:33:35;12.43;;;9.30;;
58512;SDS011;44302;47.914;10.642;2023-02-28T12:36:08;15.00;;;10.40;;
58512;SDS011;44302;47.914;10.642;2023-02-28T12:38:44;15.07;;;10.77;;
58512;SDS011;44302;47.914;10.642;2023-02-28T12:41:17;13.47;;;10.33;;
58512;SDS011;44302;47.914;10.642;2023-02-28T12:44:04;14.83;;;10.87;;
58512;SDS011;44302;47.914;10.642;2023-02-28T12:46:41;17.63;;;10.63;;
58512;SDS011;44302;47.914;10.642;2023-02-28T12:49:12;17.47;;;11.87;;
58512;SDS011;44302;47.914;10.642;2023-02-28T12:51:56;14.73;;;10.30;;
58512;SDS011;44302;47.914;10.642;2023-02-28T12:57:01;13.50;;;10.50;;
58512;SDS011;44302;47.914;10.642;2023-02-28T12:59:50;13.80;;;10.40;;
58512;SDS011;44302;47.914;10.642;2023-02-28T13:10:39;14.43;;;10.37;;
58512;SDS011;44302;47.914;10.642;2023-02-28T13:13:19;15.27;;;11.43;;
58512;SDS011;44302;47.914;10.642;2023-02-28T13:21:02;20.60;;;15.77;;
58512;SDS011;44302;47.914;10.642;2023-02-28T13:23:38;26.10;;;16.23;;
58512;SDS011;44302;47.914;10.642;2023-02-28T13:35:13;24.33;;;18.67;;
58512;SDS011;44302;47.914;10.642;2023-02-28T13:39:58;15.57;;;12.27;;
58512;SDS011;44302;47.914;10.642;2023-02-28T13:42:48;14.43;;;11.10;;
58512;SDS011;44302;47.914;10.642;2023-02-28T13:45:25;20.73;;;15.27;;
58512;SDS011;44302;47.914;10.642;2023-02-28T14:00:55;15.13;;;11.70;;
58512;SDS011;44302;47.914;10.642;2023-02-28T14:06:31;13.93;;;10.67;;
58512;SDS011;44302;47.914;10.642;2023-02-28T14:11:33;26.07;;;15.43;;
58512;SDS011;44302;47.914;10.642;2023-02-28T14:14:02;39.03;;;21.27;;
58512;SDS011;44302;47.914;10.642;2023-02-28T14:16:39;31.77;;;18.63;;
58512;SDS011;44302;47.914;10.642;2023-02-28T14:19:20;27.10;;;16.20;;
58512;SDS011;44302;47.914;10.642;2023-02-28T14:22:05;23.80;;;15.83;;
58512;SDS011;44302;47.914;10.642;2023-02-28T14:27:38;19.97;;;10.77;;
58512;SDS011;44302;47.914;10.642;2023-02-28T14:33:47;19.23;;;11.50;;
58512;SDS011;44302;47.914;10.642;2023-02-28T14:36:30;14.37;;;11.00;;
58512;SDS011;44302;47.914;10.642;2023-02-28T14:39:22;14.60;;;11.10;;
58512;SDS011;44302;47.914;10.642;2023-02-28T14:41:50;14.20;;;11.20;;
58512;SDS011;44302;47.914;10.642;2023-02-28T14:46:43;18.00;;;12.50;;
58512;SDS011;44302;47.914;10.642;2023-02-28T14:49:17;21.37;;;12.97;;
58512;SDS011;44302;47.914;10.642;2023-02-28T14:51:47;20.40;;;11.70;;
58512;SDS011;44302;47.914;10.642;2023-02-28T14:54:15;22.27;;;13.80;;
58512;SDS011;44302;47.914;10.642;2023-02-28T14:56:48;18.77;;;13.07;;
58512;SDS011;44302;47.914;10.642;2023-02-28T14:59:25;19.73;;;12.27;;
58512;SDS011;44302;47.914;10.642;2023-02-28T15:02:13;21.00;;;12.23;;
58512;SDS011;44302;47.914;10.642;2023-02-28T15:04:41;14.90;;;11.20;;
58512;SDS011;44302;47.914;10.642;2023-02-28T15:07:11;16.83;;;11.20;;
58512;SDS011;44302;47.914;10.642;2023-02-28T15:09:39;12.30;;;9.70;;
58512;SDS011;44302;47.914;10.642;2023-02-28T15:12:05;16.13;;;11.97;;
58512;SDS011;44302;47.914;10.642;2023-02-28T15:14:32;15.67;;;11.67;;
58512;SDS011;44302;47.914;10.642;2023-02-28T15:17:05;14.13;;;11.77;;
58512;SDS011;44302;47.914;10.642;2023-02-28T15:19:39;14.43;;;11.57;;
58512;SDS011;44302;47.914;10.642;2023-02-28T15:22:14;19.00;;;11.73;;
58512;SDS011;44302;47.914;10.642;2023-02-28T15:24:45;17.90;;;11.87;;
58512;SDS011;44302;47.914;10.642;2023-02-28T15:27:24;15.30;;;10.63;;
58512;SDS011;44302;47.914;10.642;2023-02-28T15:29:55;17.53;;;11.80;;
58512;SDS011;44302;47.914;10.642;2023-02-28T15:32:30;15.03;;;12.33;;
58512;SDS011;44302;47.914;10.642;2023-02-28T15:34:58;17.80;;;12.53;;
58512;SDS011;44302;47.914;10.642;2023-02-28T15:37:47;17.83;;;13.10;;
58512;SDS011;44302;47.914;10.642;2023-02-28T15:40:29;17.73;;;13.07;;
58512;SDS011;44302;47.914;10.642;2023-02-28T15:43:06;16.43;;;13.20;;
58512;SDS011;44302;47.914;10.642;2023-02-28T15:45:44;23.67;;;16.23;;
58512;SDS011;44302;47.914;10.642;2023-02-28T15:53:29;17.10;;;12.80;;
58512;SDS011;44302;47.914;10.642;2023-02-28T15:55:59;16.93;;;13.77;;
58512;SDS011;44302;47.914;10.642;2023-02-28T15:58:27;14.43;;;11.87;;
58512;SDS011;44302;47.914;10.642;2023-02-28T16:01:07;15.50;;;12.03;;
58512;SDS011;44302;47.914;10.642;2023-02-28T16:03:46;18.13;;;11.63;;
58512;SDS011;44302;47.914;10.642;2023-02-28T16:09:10;15.10;;;12.27;;
58512;SDS011;44302;47.914;10.642;2023-02-28T16:11:45;15.77;;;11.80;;
58512;SDS011;44302;47.914;10.642;2023-02-28T16:14:14;19.03;;;13.50;;
58512;SDS011;44302;47.914;10.642;2023-02-28T16:16:49;21.53;;;14.33;;
58512;SDS011;44302;47.914;10.642;2023-02-28T16:19:17;19.87;;;13.10;;
58512;SDS011;44302;47.914;10.642;2023-02-28T16:21:43;25.80;;;18.03;;
58512;SDS011;44302;47.914;10.642;2023-02-28T16:24:09;17.03;;;13.27;;
